createdAt,value
2023-04-23T00:03:58.094Z,37.35
2023-04-23T00:09:01.249Z,37.15
2023-04-23T00:14:03.490Z,36.85
2023-04-23T00:19:05.587Z,35.63
2023-04-23T00:24:07.921Z,37.38
2023-04-23T00:29:10.208Z,35.20
2023-04-23T00:34:12.573Z,35.45
2023-04-23T00:39:15.241Z,37.40
2023-04-23T00:44:17.540Z,35.58
2023-04-23T00:49:21.948Z,35.88
2023-04-23T00:54:23.989Z,36.00
2023-04-23T00:59:26.898Z,35.42
2023-04-23T01:04:31.130Z,35.60
2023-04-23T01:09:33.885Z,35.65
2023-04-23T01:14:37.327Z,34.58
2023-04-23T01:19:39.809Z,35.05
2023-04-23T01:24:42.805Z,34.17
2023-04-23T01:29:47.544Z,36.28
2023-04-23T01:34:51.953Z,35.97
2023-04-23T01:39:54.305Z,35.63
2023-04-23T01:44:56.531Z,34.60
2023-04-23T01:49:58.713Z,34.83
2023-04-23T01:55:02.023Z,34.85
2023-04-23T02:00:11.104Z,34.10
2023-04-23T02:05:18.666Z,35.10
2023-04-23T02:10:21.176Z,35.45
2023-04-23T02:15:23.247Z,34.25
2023-04-23T02:20:25.504Z,33.05
2023-04-23T02:25:27.647Z,32.00
2023-04-23T02:30:30.360Z,31.92
2023-04-23T02:35:32.423Z,31.35
2023-04-23T02:40:34.454Z,31.50
2023-04-23T02:45:36.482Z,31.98
2023-04-23T02:50:41.530Z,29.17
2023-04-23T02:55:43.812Z,30.48
2023-04-23T03:00:46.173Z,29.65
2023-04-23T03:05:48.428Z,30.52
2023-04-23T03:10:50.435Z,30.23
2023-04-23T03:15:54.139Z,29.45
2023-04-23T03:20:56.577Z,30.20
2023-04-23T03:25:58.897Z,29.80
2023-04-23T03:31:01.161Z,29.38
2023-04-23T03:36:03.656Z,28.95
2023-04-23T03:41:07.981Z,29.77
2023-04-23T03:46:10.441Z,28.17
2023-04-23T03:51:16.013Z,27.92
2023-04-23T03:56:21.186Z,28.27
2023-04-23T04:01:36.129Z,25.90
2023-04-23T04:06:38.515Z,28.10
2023-04-23T04:11:41.214Z,26.20
2023-04-23T04:16:44.466Z,27.45
2023-04-23T04:21:46.481Z,26.83
2023-04-23T04:26:49.096Z,27.30
2023-04-23T04:31:51.304Z,27.25
2023-04-23T04:36:53.866Z,25.02
2023-04-23T04:41:57.373Z,25.17
2023-04-23T04:46:59.549Z,26.58
2023-04-23T04:52:02.026Z,24.38
2023-04-23T04:57:04.146Z,25.08
2023-04-23T05:02:06.397Z,25.83
2023-04-23T05:07:08.512Z,22.95
2023-04-23T05:12:10.648Z,24.27
2023-04-23T05:17:13.068Z,25.23
2023-04-23T05:22:15.707Z,23.90
2023-04-23T05:27:17.703Z,24.42
2023-04-23T05:32:19.789Z,24.70
2023-04-23T05:37:22.516Z,23.83
2023-04-23T05:42:24.890Z,24.00
2023-04-23T05:47:27.006Z,23.95
2023-04-23T05:52:31.486Z,22.92
2023-04-23T05:57:33.626Z,22.85
2023-04-23T06:02:36.290Z,22.27
2023-04-23T06:07:38.818Z,20.35
2023-04-23T06:12:42.171Z,20.25
2023-04-23T06:17:44.419Z,20.20
2023-04-23T06:22:46.513Z,19.55
2023-04-23T06:27:48.717Z,18.88
2023-04-23T06:32:56.044Z,19.23
2023-04-23T06:37:58.747Z,18.50
2023-04-23T06:43:04.449Z,18.73
2023-04-23T06:48:35.595Z,18.15
2023-04-23T06:53:37.916Z,17.85
2023-04-23T06:58:41.173Z,14.57
2023-04-23T07:03:54.319Z,14.85
2023-04-23T07:08:56.473Z,13.43
2023-04-23T07:13:59.700Z,12.43
2023-04-23T07:19:04.583Z,12.23
2023-04-23T07:24:07.501Z,11.85
2023-04-23T07:29:14.047Z,10.90
2023-04-23T07:34:16.245Z,11.05
2023-04-23T07:39:18.325Z,9.63
2023-04-23T07:44:20.582Z,10.50
2023-04-23T07:49:23.267Z,10.23
2023-04-23T07:54:26.116Z,9.50
2023-04-23T07:59:29.167Z,8.68
2023-04-23T08:04:31.298Z,8.77
2023-04-23T08:09:33.571Z,7.68
2023-04-23T08:14:36.043Z,7.07
2023-04-23T08:19:42.764Z,7.35
2023-04-23T08:24:46.326Z,6.32
2023-04-23T08:29:48.391Z,6.03
2023-04-23T08:34:50.480Z,5.53
2023-04-23T08:39:52.470Z,5.93
2023-04-23T08:44:55.285Z,6.57
2023-04-23T08:49:59.039Z,5.70
2023-04-23T08:55:04.573Z,5.07
2023-04-23T09:00:10.879Z,4.88
2023-04-23T09:05:13.922Z,5.05
2023-04-23T09:10:21.716Z,4.65
2023-04-23T09:15:23.886Z,3.67
2023-04-23T09:20:26.082Z,3.65
2023-04-23T09:25:28.290Z,4.00
2023-04-23T09:30:30.671Z,3.90
2023-04-23T09:35:33.061Z,3.58
2023-04-23T09:40:36.369Z,2.65
2023-04-23T09:45:48.098Z,2.60
2023-04-23T09:50:50.417Z,2.95
2023-04-23T09:55:52.873Z,2.30
2023-04-23T10:01:07.280Z,13.27
2023-04-23T10:06:30.566Z,2.58
2023-04-23T10:11:37.726Z,2.38
2023-04-23T10:16:48.740Z,2.85
2023-04-23T10:22:05.119Z,2.58
2023-04-23T10:27:21.931Z,1.88
2023-04-23T10:32:29.417Z,2.67
2023-04-23T10:37:32.291Z,1.73
2023-04-23T10:42:35.373Z,2.13
2023-04-23T10:47:37.734Z,2.40
2023-04-23T10:52:43.271Z,2.08
2023-04-23T10:58:05.316Z,1.90
2023-04-23T11:03:37.320Z,2.22
2023-04-23T11:08:52.754Z,1.67
2023-04-23T11:13:55.121Z,2.13
2023-04-23T11:19:13.552Z,1.63
2023-04-23T11:24:15.592Z,1.90
2023-04-23T11:29:21.263Z,2.63
2023-04-23T11:34:23.864Z,1.77
2023-04-23T11:39:26.974Z,1.70
2023-04-23T11:44:30.608Z,1.52
2023-04-23T11:49:32.677Z,1.88
2023-04-23T11:54:35.157Z,1.70
2023-04-23T11:59:37.448Z,1.40
2023-04-23T12:04:41.202Z,1.55
2023-04-23T12:09:45.708Z,1.52
2023-04-23T12:14:47.713Z,2.13
2023-04-23T12:19:50.975Z,1.75
2023-04-23T12:24:54.534Z,1.60
2023-04-23T12:30:04.892Z,1.90
2023-04-23T12:35:10.104Z,2.50
2023-04-23T12:40:12.399Z,1.40
2023-04-23T12:45:14.501Z,1.35
2023-04-23T12:50:16.659Z,1.50
2023-04-23T12:55:18.787Z,1.52
2023-04-23T13:00:20.862Z,1.73
2023-04-23T13:05:23.444Z,1.40
2023-04-23T13:10:25.935Z,1.42
2023-04-23T13:15:28.025Z,4.85
2023-04-23T13:20:30.213Z,1.30
2023-04-23T13:25:32.254Z,2.30
2023-04-23T13:30:34.356Z,11.18
2023-04-23T13:35:37.742Z,1.67
2023-04-23T13:40:39.888Z,1.38
2023-04-23T13:45:42.047Z,1.90
2023-04-23T13:50:44.696Z,1.60
2023-04-23T13:55:47.721Z,1.40
2023-04-23T14:00:49.876Z,1.90
2023-04-23T14:05:52.256Z,2.05
2023-04-23T14:10:54.249Z,7.32
2023-04-23T14:15:56.306Z,2.65
2023-04-23T14:20:58.292Z,2.42
2023-04-23T14:26:04.871Z,2.55
2023-04-23T14:31:07.175Z,2.85
2023-04-23T14:36:09.531Z,2.80
2023-04-23T14:41:11.661Z,2.60
2023-04-23T14:46:13.867Z,3.20
2023-04-23T14:51:16.039Z,3.35
2023-04-23T14:56:18.351Z,2.50
2023-04-23T15:01:20.606Z,2.33
2023-04-23T15:06:22.827Z,2.65
2023-04-23T15:11:24.898Z,2.13
2023-04-23T15:16:47.461Z,2.55
2023-04-23T15:21:51.772Z,1.92
2023-04-23T15:26:54.995Z,2.30
2023-04-23T15:31:58.727Z,2.10
2023-04-23T15:37:00.958Z,1.95
2023-04-23T15:42:03.292Z,10.75
2023-04-23T15:47:05.483Z,3.83
2023-04-23T15:52:07.545Z,4.78
2023-04-23T15:57:09.846Z,4.03
2023-04-23T16:02:11.939Z,5.97
2023-04-23T16:07:14.041Z,6.93
2023-04-23T16:12:16.084Z,6.30
2023-04-23T16:17:18.319Z,5.57
2023-04-23T16:22:20.589Z,4.03
2023-04-23T16:27:23.317Z,7.18
2023-04-23T16:32:25.450Z,4.35
2023-04-23T16:37:27.692Z,3.58
2023-04-23T16:42:29.728Z,3.35
2023-04-23T16:47:31.738Z,3.22
2023-04-23T16:52:33.832Z,4.00
2023-04-23T16:57:36.732Z,5.90
2023-04-23T17:02:41.204Z,3.10
2023-04-23T17:07:43.934Z,6.45
2023-04-23T17:12:46.033Z,7.45
2023-04-23T17:17:49.192Z,3.28
2023-04-23T17:22:51.244Z,3.10
2023-04-23T17:27:54.498Z,6.40
2023-04-23T17:32:56.622Z,4.28
2023-04-23T17:37:58.679Z,3.88
2023-04-23T17:43:00.766Z,3.28
2023-04-23T17:48:02.978Z,5.82
2023-04-23T17:53:05.359Z,9.85
2023-04-23T17:58:08.916Z,4.25
2023-04-23T18:03:14.435Z,8.63
2023-04-23T18:08:17.263Z,4.43
2023-04-23T18:13:19.403Z,4.72
2023-04-23T18:18:21.997Z,5.50
2023-04-23T18:23:25.992Z,5.03
2023-04-23T18:28:28.728Z,5.85
2023-04-23T18:33:36.060Z,7.88
2023-04-23T18:38:45.242Z,3.90
2023-04-23T18:43:47.280Z,5.25
2023-04-23T18:48:58.800Z,3.80
2023-04-23T18:54:01.711Z,3.13
2023-04-23T18:59:04.211Z,2.13
2023-04-23T19:04:06.864Z,1.10
2023-04-23T19:09:09.155Z,9.50
2023-04-23T19:14:11.321Z,1.00
2023-04-23T19:19:13.643Z,2.85
2023-04-23T19:24:15.851Z,1.00
2023-04-23T19:29:17.906Z,1.80
2023-04-23T19:34:19.964Z,4.13
2023-04-23T19:39:23.506Z,0.85
2023-04-23T19:44:25.663Z,0.80
2023-04-23T19:49:27.758Z,0.60
2023-04-23T19:54:29.863Z,1.60
2023-04-23T19:59:31.952Z,3.00
2023-04-23T20:04:34.050Z,2.60
2023-04-23T20:09:36.090Z,2.60
2023-04-23T20:14:38.151Z,1.58
2023-04-23T20:19:40.426Z,1.10
2023-04-23T20:24:46.607Z,1.40
2023-04-23T20:29:49.096Z,3.10
2023-04-23T20:34:52.554Z,1.10
2023-04-23T20:39:55.712Z,0.60
2023-04-23T20:44:57.910Z,0.50
2023-04-23T20:50:00.236Z,0.60
2023-04-23T20:55:02.426Z,1.00
2023-04-23T21:00:11.438Z,1.42
2023-04-23T21:05:13.435Z,1.30
2023-04-23T21:10:15.551Z,0.82
2023-04-23T21:15:17.760Z,1.00
2023-04-23T21:20:20.020Z,0.93
2023-04-23T21:25:22.138Z,0.90
2023-04-23T21:30:41.464Z,2.15
2023-04-23T21:35:44.206Z,2.20
2023-04-23T21:40:46.794Z,3.13
2023-04-23T21:45:48.824Z,3.50
2023-04-23T21:50:51.715Z,3.20
2023-04-23T21:55:53.726Z,2.50
2023-04-23T22:00:55.830Z,2.78
2023-04-23T22:05:57.859Z,3.42
2023-04-23T22:10:59.933Z,5.25
2023-04-23T22:16:04.982Z,5.10
2023-04-23T22:21:09.940Z,4.38
2023-04-23T22:26:12.876Z,4.63
2023-04-23T22:31:14.936Z,5.57
2023-04-23T22:36:17.051Z,7.25
2023-04-23T22:41:19.162Z,9.25
2023-04-23T22:46:21.314Z,10.43
2023-04-23T22:51:23.605Z,9.85
2023-04-23T22:56:25.952Z,12.23
2023-04-23T23:01:28.070Z,13.55
2023-04-23T23:06:30.341Z,12.18
2023-04-23T23:11:32.799Z,12.30
2023-04-23T23:16:34.790Z,12.40
2023-04-23T23:21:36.917Z,9.32
2023-04-23T23:26:39.000Z,13.30
2023-04-23T23:31:41.253Z,13.43
2023-04-23T23:36:44.989Z,16.40
2023-04-23T23:41:47.266Z,18.20
2023-04-23T23:46:49.405Z,20.88
2023-04-23T23:51:51.574Z,22.67
2023-04-23T23:56:53.687Z,24.38
